createdAt,value
2022-12-22T00:11:45.620Z,0.63
2022-12-22T00:26:45.180Z,0.89
2022-12-22T00:41:45.372Z,1.13
2022-12-22T00:56:45.271Z,1.45
2022-12-22T01:11:45.456Z,1.40
2022-12-22T01:26:45.690Z,0.72
2022-12-22T01:41:45.532Z,0.77
2022-12-22T01:56:45.492Z,0.82
2022-12-22T02:11:46.084Z,1.12
2022-12-22T02:26:45.537Z,1.08
2022-12-22T02:41:45.520Z,0.93
2022-12-22T02:56:45.364Z,0.89
2022-12-22T03:11:45.598Z,0.79
2022-12-22T03:26:45.633Z,0.66
2022-12-22T03:41:45.354Z,0.73
2022-12-22T03:56:45.384Z,0.16
2022-12-22T04:11:45.575Z,1.14
2022-12-22T04:26:45.420Z,0.50
2022-12-22T04:41:45.417Z,0.27
2022-12-22T04:56:45.621Z,0.68
2022-12-22T05:11:45.797Z,0.58
2022-12-22T05:26:45.537Z,0.55
2022-12-22T05:41:45.809Z,1.14
2022-12-22T05:56:45.435Z,1.28
2022-12-22T06:11:45.528Z,0.60
2022-12-22T06:26:45.622Z,0.16
2022-12-22T06:41:45.673Z,0.94
2022-12-22T06:56:45.680Z,1.67
2022-12-22T07:11:45.586Z,1.11
2022-12-22T07:26:45.733Z,1.28
2022-12-22T07:41:45.567Z,1.49
2022-12-22T07:56:45.597Z,2.45
2022-12-22T08:11:45.764Z,1.53
2022-12-22T08:26:45.501Z,2.47
2022-12-22T08:41:46.095Z,2.05
2022-12-22T08:56:45.589Z,2.46
2022-12-22T09:11:45.664Z,1.31
2022-12-22T09:26:45.762Z,1.79
2022-12-22T09:41:45.879Z,3.40
2022-12-22T09:56:45.803Z,3.48
2022-12-22T10:11:45.880Z,3.86
2022-12-22T10:26:46.011Z,4.94
2022-12-22T10:41:46.121Z,4.48
2022-12-22T10:56:46.074Z,3.41
2022-12-22T11:11:46.282Z,4.49
2022-12-22T11:26:46.248Z,4.27
2022-12-22T11:41:46.137Z,4.16
2022-12-22T11:56:46.099Z,4.40
2022-12-22T12:11:46.124Z,3.36
2022-12-22T12:26:46.059Z,3.76
2022-12-22T12:41:46.095Z,3.20
2022-12-22T12:56:46.472Z,3.94
2022-12-22T13:12:11.759Z,3.67
2022-12-22T13:26:46.066Z,2.76
2022-12-22T13:41:46.047Z,2.68
2022-12-22T13:56:46.178Z,2.25
2022-12-22T14:11:51.032Z,3.74
2022-12-22T14:26:45.998Z,2.73
2022-12-22T14:41:46.109Z,1.97
2022-12-22T14:56:46.101Z,1.44
2022-12-22T15:11:46.211Z,1.18
2022-12-22T15:26:46.319Z,1.37
2022-12-22T15:41:46.348Z,1.29
2022-12-22T15:56:46.419Z,1.14
2022-12-22T16:11:47.301Z,1.22
2022-12-22T16:26:46.191Z,1.12
2022-12-22T16:41:46.405Z,1.41
2022-12-22T16:56:46.695Z,1.50
2022-12-22T17:11:46.396Z,2.10
2022-12-22T17:26:46.574Z,1.71
2022-12-22T17:41:50.630Z,2.13
2022-12-22T17:56:46.386Z,2.38
2022-12-22T18:11:46.556Z,2.29
2022-12-22T18:26:46.375Z,1.95
2022-12-22T18:41:46.407Z,1.99
2022-12-22T18:56:46.424Z,1.87
2022-12-22T19:11:46.505Z,2.27
2022-12-22T19:26:46.490Z,1.87
2022-12-22T19:41:46.518Z,1.96
2022-12-22T19:56:46.493Z,2.06
2022-12-22T20:11:46.481Z,2.04
2022-12-22T20:26:53.435Z,1.86
2022-12-22T20:41:52.543Z,2.06
2022-12-22T20:56:46.754Z,2.39
2022-12-22T21:11:46.685Z,2.83
2022-12-22T21:26:46.566Z,2.80
2022-12-22T21:41:46.573Z,2.10
2022-12-22T21:56:46.217Z,2.13
2022-12-22T22:11:46.218Z,2.20
2022-12-22T22:26:46.309Z,2.08
2022-12-22T22:41:46.339Z,1.89
2022-12-22T22:56:46.481Z,2.26
2022-12-22T23:11:46.338Z,2.30
2022-12-22T23:26:46.483Z,2.28
2022-12-22T23:46:25.247Z,2.07
